Time;durP1;ratioP1;P1;durP2;ratioP2;P2;SDS_P1;SDS_P2;PMS_P1;PMS_P2;Temp;Humidity;BMP_temperature;BMP_pressure;BME280_temperature;BME280_humidity;BME280_pressure;Samples;Min_cycle;Max_cycle;Signal;HPM_P1;HPM_P2
2021/08/06 00:01:23;;;;;;;1.58;1.05;;;512.10;1996.80;;;;;;4867580;29;20025;-64
2021/08/06 00:03:49;;;;;;;2.40;1.17;;;512.10;1996.80;;;;;;4867430;29;20084;-64
2021/08/06 00:06:14;;;;;;;2.28;0.98;;;512.10;1996.80;;;;;;4867386;29;20068;-63
2021/08/06 00:08:40;;;;;;;3.00;1.10;;;512.10;2022.40;;;;;;4867472;29;20362;-64
2021/08/06 00:11:08;;;;;;;2.30;1.10;;;512.10;1996.80;;;;;;4867554;29;20523;-65
2021/08/06 00:13:34;;;;;;;2.85;1.13;;;512.10;2022.40;;;;;;4867323;29;20029;-65
2021/08/06 00:16:00;;;;;;;1.05;0.88;;;512.10;1996.80;;;;;;4867533;29;20040;-61
2021/08/06 00:18:26;;;;;;;0.90;0.90;;;512.10;2022.40;;;;;;4867353;29;20041;-64
2021/08/06 00:20:55;;;;;;;3.88;1.35;;;512.00;2022.40;;;;;;4867365;29;20040;-62
2021/08/06 00:23:21;;;;;;;1.90;1.20;;;512.00;2022.40;;;;;;4867175;29;20037;-63
2021/08/06 00:25:47;;;;;;;2.15;1.02;;;512.00;2022.40;;;;;;4867575;29;20030;-62
2021/08/06 00:28:12;;;;;;;2.45;1.00;;;512.00;2022.40;;;;;;4866897;29;20026;-62
2021/08/06 00:30:38;;;;;;;4.32;1.45;;;512.00;2022.40;;;;;;4867178;29;20029;-62
2021/08/06 00:33:04;;;;;;;1.75;1.10;;;512.00;2022.40;;;;;;4867213;29;20029;-61
2021/08/06 00:35:30;;;;;;;1.23;1.00;;;487.30;2022.40;;;;;;4867103;29;20480;-62
2021/08/06 00:37:56;;;;;;;7.40;1.10;;;487.30;2022.40;;;;;;4867312;29;20022;-61
2021/08/06 00:40:23;;;;;;;3.53;1.35;;;487.30;2022.40;;;;;;4867260;29;20469;-63
2021/08/06 00:42:50;;;;;;;5.30;1.30;;;487.20;2022.40;;;;;;4867064;29;20025;-61
2021/08/06 00:45:16;;;;;;;1.52;1.00;;;487.20;2022.40;;;;;;4867066;29;20049;-61
2021/08/06 00:47:42;;;;;;;1.88;1.00;;;487.20;2022.40;;;;;;4867356;29;20052;-61
2021/08/06 00:50:10;;;;;;;2.45;0.95;;;487.20;2022.40;;;;;;4867024;29;20029;-63
2021/08/06 00:52:37;;;;;;;1.33;1.10;;;487.20;2048.00;;;;;;4867238;29;20379;-63
2021/08/06 00:55:04;;;;;;;3.63;1.00;;;487.20;2048.00;;;;;;4866986;29;20403;-63
2021/08/06 00:57:29;;;;;;;2.53;0.95;;;487.20;2048.00;;;;;;4867243;29;20025;-61
2021/08/06 00:59:55;;;;;;;4.10;1.20;;;487.20;2022.40;;;;;;4866997;29;20154;-63
2021/08/06 01:02:22;;;;;;;1.45;0.90;;;487.20;2048.00;;;;;;4867107;29;20112;-61
2021/08/06 01:05:08;;;;;;;2.22;1.10;;;487.20;2048.00;;;;;;4866968;29;20417;-61
2021/08/06 01:07:59;;;;;;;2.45;1.20;;;487.20;2048.00;;;;;;4866730;29;20037;-61
2021/08/06 01:10:36;;;;;;;1.33;1.08;;;487.20;2048.00;;;;;;4863946;29;20036;-64
2021/08/06 01:13:08;;;;;;;2.33;1.60;;;487.10;2048.00;;;;;;4864215;29;20034;-61
2021/08/06 01:15:36;;;;;;;2.47;1.10;;;487.10;2048.00;;;;;;4863795;29;20042;-65
2021/08/06 01:18:04;;;;;;;1.15;1.00;;;487.10;2048.00;;;;;;4864133;29;20420;-65
2021/08/06 01:20:37;;;;;;;2.15;1.25;;;487.10;2048.00;;;;;;4864042;29;20040;-60
2021/08/06 01:23:15;;;;;;;2.35;1.00;;;487.10;2048.00;;;;;;4863936;29;20030;-60
2021/08/06 01:25:45;;;;;;;3.22;1.35;;;487.10;2048.00;;;;;;4863938;29;20033;-61
2021/08/06 01:28:17;;;;;;;3.58;1.20;;;487.10;2048.00;;;;;;4864008;29;20174;-61
2021/08/06 01:30:44;;;;;;;2.88;1.75;;;487.10;2048.00;;;;;;4863784;29;20460;-61
2021/08/06 01:33:12;;;;;;;1.83;1.40;;;487.10;2048.00;;;;;;4863886;29;20033;-61
2021/08/06 01:35:38;;;;;;;2.80;1.10;;;487.10;2048.00;;;;;;4863589;29;20384;-61
2021/08/06 01:38:03;;;;;;;2.47;1.30;;;487.00;2048.00;;;;;;4863791;29;20036;-63
2021/08/06 01:40:40;;;;;;;2.80;1.05;;;487.00;2048.00;;;;;;4862098;29;20437;-60
2021/08/06 01:43:46;;;;;;;3.40;1.17;;;486.90;2048.00;;;;;;4863608;29;20029;-60
2021/08/06 01:46:31;;;;;;;2.05;1.42;;;486.90;2048.00;;;;;;4862576;29;20041;-64
2021/08/06 01:49:22;;;;;;;3.90;1.25;;;486.90;2048.00;;;;;;4788433;30;20042;-61
2021/08/06 01:51:55;;;;;;;3.75;1.23;;;486.90;2073.60;;;;;;4788411;30;20038;-61
2021/08/06 01:54:22;;;;;;;7.63;1.60;;;486.90;2073.60;;;;;;4788401;30;20568;-60
2021/08/06 01:56:50;;;;;;;12.30;2.13;;;486.90;2073.60;;;;;;4788409;30;20038;-60
2021/08/06 01:59:17;;;;;;;4.32;1.40;;;487.00;2073.60;;;;;;4788325;30;20039;-60
2021/08/06 02:01:44;;;;;;;5.07;1.30;;;487.00;2073.60;;;;;;4788264;30;20058;-61
2021/08/06 02:04:10;;;;;;;3.30;1.65;;;486.90;2073.60;;;;;;4788472;30;20076;-61
2021/08/06 02:06:36;;;;;;;3.80;1.55;;;486.90;2073.60;;;;;;4788165;30;20039;-64
2021/08/06 02:09:02;;;;;;;2.60;1.13;;;486.90;2073.60;;;;;;4788265;30;20127;-60
2021/08/06 02:11:28;;;;;;;3.35;1.38;;;486.90;2073.60;;;;;;4788191;30;20470;-62
2021/08/06 02:13:54;;;;;;;9.05;1.83;;;486.90;2073.60;;;;;;4788082;30;20400;-64
2021/08/06 02:16:23;;;;;;;2.42;1.30;;;486.90;2073.60;;;;;;4788159;30;20041;-63
2021/08/06 02:18:51;;;;;;;4.35;1.42;;;486.90;2073.60;;;;;;4787680;30;20048;-65
2021/08/06 02:21:24;;;;;;;4.78;1.50;;;486.90;2073.60;;;;;;4787742;29;20043;-64
2021/08/06 02:23:53;;;;;;;4.10;1.63;;;486.90;2073.60;;;;;;4788149;30;20031;-61
2021/08/06 02:26:21;;;;;;;4.18;1.90;;;486.90;2073.60;;;;;;4834694;29;20037;-61
2021/08/06 02:28:49;;;;;;;5.07;1.52;;;486.90;2073.60;;;;;;4862880;29;20400;-60
2021/08/06 02:31:16;;;;;;;8.60;1.60;;;486.90;2073.60;;;;;;4862628;29;20038;-61
2021/08/06 02:33:42;;;;;;;10.55;2.10;;;486.90;2073.60;;;;;;4862675;29;20036;-64
2021/08/06 02:36:08;;;;;;;6.50;1.60;;;486.90;2073.60;;;;;;4862304;29;20033;-64
2021/08/06 02:38:34;;;;;;;16.08;2.03;;;486.90;2073.60;;;;;;4862441;29;20068;-60
2021/08/06 02:41:00;;;;;;;8.30;1.70;;;486.90;2073.60;;;;;;4862608;29;20029;-61
2021/08/06 02:43:26;;;;;;;4.25;1.30;;;486.90;2073.60;;;;;;4862552;29;20030;-61
2021/08/06 02:45:52;;;;;;;10.80;2.17;;;486.90;2073.60;;;;;;4862225;29;20052;-64
2021/08/06 02:48:19;;;;;;;4.32;1.70;;;486.90;2073.60;;;;;;4862517;29;20144;-61
2021/08/06 02:50:45;;;;;;;3.03;1.38;;;486.80;2073.60;;;;;;4862358;29;20040;-61
2021/08/06 02:53:11;;;;;;;1.77;1.27;;;486.80;2073.60;;;;;;4862308;29;20421;-61
2021/08/06 02:55:37;;;;;;;4.18;1.50;;;486.80;2073.60;;;;;;4862281;29;20049;-60
2021/08/06 02:58:03;;;;;;;5.78;1.20;;;486.80;2099.20;;;;;;4862316;29;20030;-61
2021/08/06 03:00:29;;;;;;;5.03;1.77;;;486.80;2073.60;;;;;;4862319;29;20033;-60
2021/08/06 03:02:55;;;;;;;1.63;1.20;;;486.80;2073.60;;;;;;4862190;29;20034;-64
2021/08/06 03:05:21;;;;;;;3.55;1.20;;;486.80;2073.60;;;;;;4861990;29;20021;-61
2021/08/06 03:07:48;;;;;;;2.55;1.23;;;486.80;2099.20;;;;;;4861605;29;20090;-64
2021/08/06 03:10:14;;;;;;;1.38;1.15;;;486.80;2099.20;;;;;;4862309;29;20018;-64
2021/08/06 03:12:40;;;;;;;1.45;1.27;;;486.70;2073.60;;;;;;4862637;29;20029;-61
2021/08/06 03:15:06;;;;;;;2.05;1.35;;;486.70;2099.20;;;;;;4861583;29;20076;-65
2021/08/06 03:17:32;;;;;;;2.65;1.40;;;486.70;2099.20;;;;;;4862270;29;20379;-64
2021/08/06 03:19:57;;;;;;;3.33;1.20;;;486.70;2073.60;;;;;;4861920;29;20113;-60
2021/08/06 03:22:23;;;;;;;1.40;1.30;;;486.60;2099.20;;;;;;4861871;29;20074;-61
2021/08/06 03:24:49;;;;;;;4.53;1.17;;;486.60;2073.60;;;;;;4862038;29;20046;-61
2021/08/06 03:27:14;;;;;;;1.90;1.30;;;486.60;2073.60;;;;;;4861861;29;20108;-60
2021/08/06 03:29:40;;;;;;;3.33;1.30;;;486.60;2073.60;;;;;;4861861;29;20053;-64
2021/08/06 03:32:06;;;;;;;3.10;1.27;;;486.60;2073.60;;;;;;4861457;29;20417;-60
2021/08/06 03:34:32;;;;;;;4.13;1.30;;;486.60;2073.60;;;;;;4861413;29;20131;-64
2021/08/06 03:36:57;;;;;;;2.85;1.30;;;486.60;2073.60;;;;;;4861481;29;20460;-64
2021/08/06 03:39:23;;;;;;;2.97;1.27;;;486.60;2073.60;;;;;;4861885;29;20033;-61
2021/08/06 03:41:49;;;;;;;1.58;1.27;;;486.60;2073.60;;;;;;4861783;29;20026;-60
2021/08/06 03:44:15;;;;;;;4.97;1.10;;;486.60;2073.60;;;;;;4861788;29;20440;-60
2021/08/06 03:46:40;;;;;;;2.00;1.10;;;486.60;2073.60;;;;;;4861404;29;20045;-64
2021/08/06 03:49:06;;;;;;;1.52;1.40;;;486.60;2073.60;;;;;;4861621;29;20120;-64
2021/08/06 03:51:32;;;;;;;4.95;1.40;;;486.60;2073.60;;;;;;4861180;29;20050;-64
2021/08/06 03:53:57;;;;;;;2.45;1.30;;;486.60;2073.60;;;;;;4861297;29;20037;-60
2021/08/06 03:56:23;;;;;;;4.40;1.27;;;486.60;2073.60;;;;;;4861397;29;20029;-60
2021/08/06 03:58:49;;;;;;;2.90;1.30;;;486.60;2073.60;;;;;;4861347;29;20561;-63
2021/08/06 04:01:15;;;;;;;3.30;1.20;;;486.50;2073.60;;;;;;4861426;29;20104;-64
2021/08/06 04:03:40;;;;;;;4.13;1.15;;;486.60;2073.60;;;;;;4861484;29;20377;-65
2021/08/06 04:06:06;;;;;;;2.30;1.52;;;486.60;2073.60;;;;;;4861211;29;20030;-65
2021/08/06 04:08:32;;;;;;;3.15;1.20;;;486.60;2073.60;;;;;;4861732;29;20065;-63
2021/08/06 04:10:57;;;;;;;6.03;1.67;;;486.50;2073.60;;;;;;4861196;29;20109;-65
2021/08/06 04:13:23;;;;;;;3.50;1.45;;;486.60;2073.60;;;;;;4861271;29;20041;-65
2021/08/06 04:15:49;;;;;;;3.33;1.52;;;486.60;2073.60;;;;;;4859938;29;20038;-65
2021/08/06 04:18:14;;;;;;;1.75;1.30;;;486.60;2073.60;;;;;;4861175;29;20033;-65
2021/08/06 04:20:40;;;;;;;3.50;1.52;;;486.60;2073.60;;;;;;4861138;29;20033;-65
2021/08/06 04:23:06;;;;;;;3.25;1.60;;;486.60;2073.60;;;;;;4861077;29;20036;-64
2021/08/06 04:25:31;;;;;;;2.85;1.40;;;486.50;2073.60;;;;;;4861320;29;20033;-65
2021/08/06 04:27:57;;;;;;;5.18;1.63;;;486.60;2073.60;;;;;;4861010;29;20033;-65
2021/08/06 04:30:23;;;;;;;3.78;1.50;;;486.60;2073.60;;;;;;4861761;29;20033;-66
2021/08/06 04:32:49;;;;;;;2.20;1.55;;;486.60;2073.60;;;;;;4861149;29;20060;-66
2021/08/06 04:35:14;;;;;;;2.30;1.42;;;486.60;2073.60;;;;;;4861019;29;20048;-65
2021/08/06 04:37:54;;;;;;;2.63;1.38;;;486.60;2073.60;;;;;;4861080;29;20032;-64
2021/08/06 04:40:20;;;;;;;3.50;1.52;;;486.60;2073.60;;;;;;4861050;29;20054;-64
2021/08/06 04:42:46;;;;;;;3.83;1.50;;;486.60;2073.60;;;;;;4861230;29;20496;-69
2021/08/06 04:45:13;;;;;;;2.30;1.50;;;486.70;2099.20;;;;;;4862058;29;20057;-71
2021/08/06 04:47:46;;;;;;;2.22;1.67;;;486.80;2099.20;;;;;;4864576;29;20034;-72
2021/08/06 04:50:13;;;;;;;2.22;1.42;;;486.80;2099.20;;;;;;4864435;29;20041;-72
2021/08/06 04:52:40;;;;;;;2.00;1.40;;;486.80;2099.20;;;;;;4864311;29;20032;-71
2021/08/06 04:55:06;;;;;;;14.77;2.45;;;486.90;2099.20;;;;;;4864336;29;20045;-66
2021/08/06 04:57:31;;;;;;;14.45;2.15;;;486.90;2099.20;;;;;;4865034;29;20026;-63
2021/08/06 04:59:57;;;;;;;4.25;1.90;;;486.90;2099.20;;;;;;4864377;29;20113;-63
2021/08/06 05:02:23;;;;;;;3.40;1.63;;;486.90;2099.20;;;;;;4864342;29;20029;-63
2021/08/06 05:04:48;;;;;;;2.80;1.70;;;487.00;2099.20;;;;;;4864132;29;20511;-64
2021/08/06 05:07:18;;;;;;;3.03;1.50;;;487.00;2099.20;;;;;;4863991;29;20025;-63
2021/08/06 05:09:45;;;;;;;11.98;2.30;;;487.10;2099.20;;;;;;4864254;29;20090;-64
2021/08/06 05:12:11;;;;;;;7.78;2.45;;;487.10;2099.20;;;;;;4864138;29;20053;-64
2021/08/06 05:14:37;;;;;;;3.10;1.83;;;487.10;2124.80;;;;;;4864004;29;20097;-63
2021/08/06 05:17:03;;;;;;;3.70;2.10;;;487.20;2124.80;;;;;;4864227;29;20034;-64
2021/08/06 05:19:28;;;;;;;2.25;1.90;;;487.20;2124.80;;;;;;4864014;29;20036;-63
2021/08/06 05:21:54;;;;;;;3.95;2.28;;;487.20;2124.80;;;;;;4863980;29;20037;-63
2021/08/06 05:24:20;;;;;;;6.53;2.20;;;487.20;2150.40;;;;;;4864043;29;20032;-63
2021/08/06 05:26:46;;;;;;;6.20;2.20;;;487.20;2150.40;;;;;;4863766;29;20026;-63
2021/08/06 05:29:11;;;;;;;2.45;2.22;;;487.30;2150.40;;;;;;4864006;29;20084;-64
2021/08/06 05:31:37;;;;;;;3.13;2.67;;;487.30;2150.40;;;;;;4863674;29;20026;-64
2021/08/06 05:34:03;;;;;;;3.47;2.60;;;487.30;2150.40;;;;;;4863335;29;20030;-64
2021/08/06 05:36:29;;;;;;;5.35;2.58;;;512.00;2150.40;;;;;;4863645;29;20108;-64
2021/08/06 05:38:54;;;;;;;3.22;2.60;;;512.00;2150.40;;;;;;4863652;29;20029;-64
2021/08/06 05:41:20;;;;;;;2.50;2.30;;;512.00;2150.40;;;;;;4863641;29;20037;-64
2021/08/06 05:43:46;;;;;;;2.63;2.30;;;512.10;2150.40;;;;;;4863263;29;20372;-63
2021/08/06 05:46:11;;;;;;;2.53;2.25;;;512.10;2150.40;;;;;;4863204;29;20080;-63
2021/08/06 05:48:37;;;;;;;5.18;2.50;;;512.20;2150.40;;;;;;4863456;29;20022;-63
2021/08/06 05:51:03;;;;;;;4.40;2.38;;;512.20;2150.40;;;;;;4862612;29;20472;-63
2021/08/06 05:53:29;;;;;;;4.72;2.40;;;512.30;2150.40;;;;;;4863315;29;20396;-63
2021/08/06 05:55:55;;;;;;;4.25;2.47;;;512.30;2150.40;;;;;;4863029;29;20045;-64
2021/08/06 05:58:20;;;;;;;4.20;2.22;;;512.30;2150.40;;;;;;4863445;29;20389;-67
2021/08/06 06:00:47;;;;;;;2.80;2.10;;;512.40;2150.40;;;;;;4862796;29;20030;-66
2021/08/06 06:03:13;;;;;;;14.02;3.08;;;512.50;2150.40;;;;;;4862983;29;20029;-67
2021/08/06 06:05:39;;;;;;;12.25;2.40;;;512.50;2150.40;;;;;;4863036;29;20131;-63
2021/08/06 06:08:05;;;;;;;3.67;2.17;;;512.50;2150.40;;;;;;4862917;29;20048;-62
2021/08/06 06:10:31;;;;;;;2.55;2.03;;;512.60;2124.80;;;;;;4863002;29;20380;-63
2021/08/06 06:12:56;;;;;;;4.35;2.08;;;512.60;2150.40;;;;;;4862698;29;20064;-63
2021/08/06 06:15:23;;;;;;;2.10;1.88;;;512.70;2124.80;;;;;;4862774;29;20045;-64
2021/08/06 06:17:48;;;;;;;6.82;2.38;;;512.70;2124.80;;;;;;4862277;29;20465;-65
2021/08/06 06:20:16;;;;;;;9.38;2.55;;;512.80;2099.20;;;;;;4862949;29;20048;-66
2021/08/06 06:22:42;;;;;;;5.97;2.95;;;512.90;2099.20;;;;;;4862615;29;20042;-63
2021/08/06 06:25:09;;;;;;;12.23;2.95;;;537.60;2124.80;;;;;;4862838;29;20025;-62
2021/08/06 06:27:45;;;;;;;7.53;2.72;;;537.60;2124.80;;;;;;4863163;29;20029;-62
2021/08/06 06:30:11;;;;;;;4.88;2.40;;;537.70;2124.80;;;;;;4862834;29;20045;-61
2021/08/06 06:32:37;;;;;;;4.32;2.00;;;537.80;2099.20;;;;;;4862628;29;20030;-63
2021/08/06 06:35:03;;;;;;;6.60;2.60;;;537.90;2099.20;;;;;;4862340;29;20471;-61
2021/08/06 06:37:28;;;;;;;4.95;2.10;;;538.10;2073.60;;;;;;4862474;29;20040;-66
2021/08/06 06:39:54;;;;;;;3.75;1.73;;;538.20;2048.00;;;;;;4862715;29;20041;-62
2021/08/06 06:42:20;;;;;;;2.90;1.60;;;538.40;2048.00;;;;;;4862627;29;20033;-64
2021/08/06 06:44:45;;;;;;;2.15;1.42;;;563.20;2022.40;;;;;;4862661;29;20040;-64
2021/08/06 06:47:11;;;;;;;5.53;1.55;;;563.30;1996.80;;;;;;4862547;29;20033;-64
2021/08/06 06:49:37;;;;;;;3.40;1.48;;;563.60;1971.20;;;;;;4862933;29;20061;-62
2021/08/06 06:52:03;;;;;;;3.90;1.30;;;563.70;1945.60;;;;;;4862394;29;20041;-61
2021/08/06 06:54:29;;;;;;;1.60;1.42;;;563.90;1945.60;;;;;;4862104;29;20432;-64
2021/08/06 06:56:54;;;;;;;1.20;1.10;;;564.10;1894.40;;;;;;4862438;29;20117;-64
2021/08/06 06:59:20;;;;;;;2.33;1.55;;;588.90;1894.40;;;;;;4862125;29;20036;-64
2021/08/06 07:01:46;;;;;;;3.58;1.10;;;589.10;1868.80;;;;;;4862240;29;20033;-64
2021/08/06 07:04:12;;;;;;;1.73;1.13;;;589.20;1817.60;;;;;;4861802;29;20034;-61
2021/08/06 07:06:38;;;;;;;4.68;1.30;;;589.40;1792.00;;;;;;4851817;29;20024;-63
2021/08/06 07:09:08;;;;;;;4.03;0.90;;;589.60;1792.00;;;;;;4849781;29;20112;-61
2021/08/06 07:11:33;;;;;;;2.95;1.17;;;614.40;1766.40;;;;;;4850899;29;20057;-62
2021/08/06 07:13:59;;;;;;;7.50;1.10;;;614.50;1740.80;;;;;;4852143;29;20057;-61
2021/08/06 07:16:25;;;;;;;7.25;2.10;;;614.70;1689.60;;;;;;4850616;29;20519;-63
2021/08/06 07:18:50;;;;;;;1.00;0.90;;;614.90;1664.00;;;;;;4851207;29;20030;-61
2021/08/06 07:21:16;;;;;;;6.70;1.05;;;615.00;1638.40;;;;;;4851906;29;20029;-63
2021/08/06 07:23:42;;;;;;;14.18;1.58;;;615.30;1587.20;;;;;;4850378;29;20026;-61
2021/08/06 07:26:08;;;;;;;6.70;1.08;;;640.10;1587.20;;;;;;4849901;29;20037;-61
2021/08/06 07:28:34;;;;;;;14.45;2.05;;;640.40;1561.60;;;;;;4851560;29;20033;-61
2021/08/06 07:30:59;;;;;;;14.85;1.67;;;640.60;1536.00;;;;;;4850339;29;20030;-62
2021/08/06 07:33:25;;;;;;;2.70;1.00;;;640.90;1484.80;;;;;;4852022;29;20061;-61
2021/08/06 07:35:51;;;;;;;5.38;1.15;;;665.70;1484.80;;;;;;4851168;29;20473;-62
2021/08/06 07:38:16;;;;;;;3.00;1.00;;;666.00;1459.20;;;;;;4850524;29;20496;-63
2021/08/06 07:40:42;;;;;;;1.08;0.80;;;666.20;1433.60;;;;;;4852122;29;20030;-64
2021/08/06 07:43:08;;;;;;;1.67;0.85;;;666.40;1408.00;;;;;;4850554;29;20478;-62
2021/08/06 07:45:34;;;;;;;1.55;1.10;;;691.30;1382.40;;;;;;4861282;29;20492;-63
2021/08/06 07:47:59;;;;;;;5.22;3.17;;;691.40;1408.00;;;;;;4861979;29;20389;-62
2021/08/06 07:50:25;;;;;;;23.75;1.83;;;691.70;1356.80;;;;;;4861250;29;20039;-63
2021/08/06 07:52:51;;;;;;;12.80;3.58;;;691.80;1331.20;;;;;;4861352;29;20400;-63
2021/08/06 07:55:17;;;;;;;98.13;8.93;;;692.00;1305.60;;;;;;4861154;29;20045;-64
2021/08/06 07:57:44;;;;;;;15.38;2.03;;;716.80;1356.80;;;;;;4860946;29;20026;-66
2021/08/06 08:00:10;;;;;;;11.57;1.75;;;717.00;1331.20;;;;;;4861412;29;20036;-62
2021/08/06 08:02:37;;;;;;;1.50;0.90;;;717.20;1331.20;;;;;;4861264;29;20033;-63
2021/08/06 08:05:04;;;;;;;2.83;0.80;;;717.30;1280.00;;;;;;4861468;29;20461;-62
2021/08/06 08:07:30;;;;;;;13.57;1.83;;;717.40;1254.40;;;;;;4861053;29;20026;-62
2021/08/06 08:09:56;;;;;;;8.90;1.40;;;717.50;1254.40;;;;;;4861213;29;20040;-62
2021/08/06 08:12:22;;;;;;;3.67;1.00;;;717.70;1254.40;;;;;;4861148;29;20034;-62
2021/08/06 08:14:48;;;;;;;4.72;1.30;;;742.50;1254.40;;;;;;4860772;29;20476;-62
2021/08/06 08:17:18;;;;;;;21.30;3.10;;;742.60;1254.40;;;;;;4861760;29;20096;-62
2021/08/06 08:19:45;;;;;;;13.63;3.35;;;742.70;1254.40;;;;;;4863295;29;20105;-61
2021/08/06 08:22:11;;;;;;;21.52;5.90;;;742.80;1228.80;;;;;;4864763;29;20034;-61
2021/08/06 08:24:37;;;;;;;46.35;8.50;;;743.00;1228.80;;;;;;4865054;29;20040;-61
2021/08/06 08:27:04;;;;;;;14.20;3.88;;;743.20;1203.20;;;;;;4864959;29;20021;-61
2021/08/06 08:29:29;;;;;;;8.77;2.05;;;743.30;1177.60;;;;;;4864923;29;20108;-61
2021/08/06 08:31:55;;;;;;;25.77;3.80;;;768.00;1152.00;;;;;;4864753;29;20057;-61
2021/08/06 08:34:22;;;;;;;37.63;4.55;;;768.00;1126.40;;;;;;4864665;29;20064;-62
2021/08/06 08:36:48;;;;;;;14.85;2.92;;;768.10;1126.40;;;;;;4863491;29;20396;-62
2021/08/06 08:39:14;;;;;;;16.23;2.78;;;768.20;1126.40;;;;;;4864140;29;20033;-62
2021/08/06 08:41:40;;;;;;;9.00;2.25;;;768.30;1126.40;;;;;;4864489;29;20044;-62
2021/08/06 08:44:05;;;;;;;5.30;2.00;;;768.40;1100.80;;;;;;4864582;29;20045;-62
2021/08/06 08:46:33;;;;;;;19.33;3.75;;;768.50;1100.80;;;;;;4864557;29;20121;-62
2021/08/06 08:49:00;;;;;;;6.53;2.50;;;768.60;1126.40;;;;;;4863276;29;20033;-62
2021/08/06 08:51:27;;;;;;;4.82;2.67;;;768.80;1100.80;;;;;;4864547;29;20027;-62
2021/08/06 08:53:55;;;;;;;10.93;2.72;;;768.90;1075.20;;;;;;4864380;29;20025;-64
2021/08/06 08:56:22;;;;;;;7.82;1.90;;;793.60;1100.80;;;;;;4864530;29;20044;-62
2021/08/06 08:58:48;;;;;;;3.63;1.92;;;793.70;1075.20;;;;;;4864141;29;20086;-61
2021/08/06 09:01:14;;;;;;;5.30;2.15;;;793.60;1075.20;;;;;;4861645;29;20057;-61
2021/08/06 09:03:46;;;;;;;5.30;2.72;;;793.60;1075.20;;;;;;4854378;29;20025;-62
2021/08/06 09:06:12;;;;;;;2.75;1.92;;;793.60;1075.20;;;;;;4853522;29;20026;-62
2021/08/06 09:08:39;;;;;;;4.65;2.22;;;793.70;1049.60;;;;;;4852853;29;20049;-62
2021/08/06 09:11:28;;;;;;;32.78;10.90;;;793.70;1049.60;;;;;;4852046;29;20026;-66
2021/08/06 09:14:14;;;;;;;45.17;6.05;;;794.00;1049.60;;;;;;4845695;29;20030;-68
2021/08/06 09:16:58;;;;;;;13.52;3.22;;;794.10;1075.20;;;;;;4849550;29;20509;-69
2021/08/06 09:19:26;;;;;;;5.38;2.03;;;794.20;1024.00;;;;;;4859913;29;20042;-69
2021/08/06 09:21:52;;;;;;;4.88;2.10;;;794.30;998.40;;;;;;4864008;29;20040;-63
2021/08/06 09:24:18;;;;;;;4.57;2.10;;;794.40;998.40;;;;;;4863710;29;20082;-65
2021/08/06 09:26:45;;;;;;;2.05;1.60;;;794.50;998.40;;;;;;4863432;29;20385;-65
2021/08/06 09:29:18;;;;;;;4.57;1.67;;;819.30;998.40;;;;;;4863840;29;20036;-65
2021/08/06 09:31:59;;;;;;;2.65;1.75;;;794.50;998.40;;;;;;4862948;29;20041;-67
2021/08/06 09:34:35;;;;;;;4.50;1.70;;;794.30;998.40;;;;;;4863488;29;20291;-67
2021/08/06 09:37:16;;;;;;;3.85;1.70;;;794.40;998.40;;;;;;4863465;29;20437;-69
2021/08/06 09:39:48;;;;;;;2.85;1.33;;;794.10;998.40;;;;;;4863716;29;20524;-63
2021/08/06 09:42:25;;;;;;;3.60;1.25;;;794.30;998.40;;;;;;4856148;29;20545;-64
2021/08/06 09:45:06;;;;;;;4.80;1.48;;;794.10;998.40;;;;;;4851553;29;20041;-70
2021/08/06 09:47:34;;;;;;;2.65;1.30;;;794.30;972.80;;;;;;4853848;29;20050;-69
2021/08/06 09:50:05;;;;;;;2.47;1.40;;;794.30;972.80;;;;;;4863281;29;20034;-69
2021/08/06 09:52:38;;;;;;;2.00;1.30;;;794.10;972.80;;;;;;4863037;29;20045;-69
2021/08/06 09:55:05;;;;;;;;;;;793.80;1024.00;;;;;;4857814;29;20140;-70
2021/08/06 09:57:30;;;;;;;4.38;1.50;;;793.90;1024.00;;;;;;4851293;29;19912;-70
2021/08/06 09:59:57;;;;;;;3.65;1.45;;;794.00;1024.00;;;;;;4852201;29;20038;-69
2021/08/06 10:02:24;;;;;;;33.15;2.25;;;794.10;1024.00;;;;;;4852002;29;20049;-64
2021/08/06 10:05:11;;;;;;;17.05;2.00;;;794.30;1024.00;;;;;;4853541;29;20021;-66
2021/08/06 10:07:40;;;;;;;6.45;1.55;;;794.10;1049.60;;;;;;4852302;29;20017;-62
2021/08/06 10:10:10;;;;;;;2.17;1.52;;;794.30;1024.00;;;;;;4851575;29;20070;-64
2021/08/06 10:12:36;;;;;;;3.47;1.15;;;794.30;1024.00;;;;;;4851970;29;20502;-62
2021/08/06 10:15:02;;;;;;;1.88;1.30;;;794.10;1024.00;;;;;;4852092;29;20049;-79
2021/08/06 10:17:28;;;;;;;4.45;1.45;;;793.90;1024.00;;;;;;4848461;29;20022;-72
2021/08/06 10:19:54;;;;;;;3.95;1.40;;;794.00;998.40;;;;;;4853160;29;20037;-65
2021/08/06 10:22:20;;;;;;;10.35;1.70;;;794.10;998.40;;;;;;4853071;29;20026;-67
2021/08/06 10:24:52;;;;;;;3.05;1.50;;;793.90;1024.00;;;;;;4851518;29;20033;-67
2021/08/06 10:27:25;;;;;;;15.77;2.10;;;793.70;1024.00;;;;;;4851600;29;20028;-66
2021/08/06 10:30:19;;;;;;;5.07;1.73;;;793.60;1049.60;;;;;;4851773;29;20034;-67
2021/08/06 10:33:22;;;;;;;9.93;2.13;;;793.60;1024.00;;;;;;4844302;29;20041;-68
2021/08/06 10:36:02;;;;;;;3.47;1.35;;;793.70;1024.00;;;;;;4853444;29;20045;-70
2021/08/06 10:38:39;;;;;;;18.27;2.70;;;793.90;1024.00;;;;;;4851852;29;20048;-67
2021/08/06 10:41:14;;;;;;;3.75;1.38;;;794.30;1024.00;;;;;;4851691;29;20153;-68
2021/08/06 10:43:44;;;;;;;3.53;1.30;;;794.10;1024.00;;;;;;4850861;29;20407;-70
2021/08/06 10:46:11;;;;;;;3.35;1.50;;;793.80;1024.00;;;;;;4856029;29;20489;-66
2021/08/06 10:48:40;;;;;;;3.60;1.83;;;794.00;1024.00;;;;;;4854469;29;20062;-66
2021/08/06 10:51:15;;;;;;;4.40;2.30;;;794.00;998.40;;;;;;4850874;29;20029;-68
2021/08/06 10:53:56;;;;;;;5.80;2.90;;;794.10;998.40;;;;;;4850622;29;20030;-80
2021/08/06 10:56:29;;;;;;;3.70;2.08;;;794.40;998.40;;;;;;4853269;29;20038;-68
2021/08/06 10:59:11;;;;;;;71.00;6.97;;;794.30;972.80;;;;;;4851566;29;20033;-67
2021/08/06 11:01:49;;;;;;;25.55;3.50;;;794.30;1024.00;;;;;;4851805;29;20257;-68
2021/08/06 11:04:16;;;;;;;37.47;4.40;;;794.40;972.80;;;;;;4843844;29;20030;-67
2021/08/06 11:06:46;;;;;;;6.25;2.60;;;819.20;972.80;;;;;;4848492;29;20033;-67
2021/08/06 11:09:32;;;;;;;10.18;2.05;;;819.50;972.80;;;;;;4851411;29;20050;-68
2021/08/06 11:12:02;;;;;;;3.10;1.60;;;819.40;947.20;;;;;;4852728;29;20034;-68
2021/08/06 11:14:28;;;;;;;1.52;1.35;;;819.50;947.20;;;;;;4843367;29;20091;-67
2021/08/06 11:17:01;;;;;;;1.48;1.38;;;819.60;947.20;;;;;;4844190;29;20034;-67
2021/08/06 11:19:27;;;;;;;3.97;1.30;;;819.70;947.20;;;;;;4850123;29;20029;-73
2021/08/06 11:21:52;;;;;;;1.77;1.63;;;819.90;921.60;;;;;;4850401;29;20030;-65
2021/08/06 11:24:19;;;;;;;3.05;1.85;;;819.90;921.60;;;;;;4851398;29;20026;-67
2021/08/06 11:26:50;;;;;;;2.65;1.95;;;820.00;896.00;;;;;;4850357;29;20038;-67
2021/08/06 11:29:16;;;;;;;1.88;1.60;;;820.00;896.00;;;;;;4851101;29;20480;-67
2021/08/06 11:31:42;;;;;;;2.28;1.60;;;844.80;921.60;;;;;;4852081;29;20109;-67
2021/08/06 11:34:08;;;;;;;4.10;1.63;;;845.00;921.60;;;;;;4849947;29;20409;-67
2021/08/06 11:36:35;;;;;;;4.72;1.75;;;845.10;896.00;;;;;;4851497;29;20109;-67
2021/08/06 11:39:14;;;;;;;1.77;1.33;;;845.10;896.00;;;;;;4851499;29;20037;-66
2021/08/06 11:41:48;;;;;;;4.32;1.40;;;845.10;870.40;;;;;;4851318;29;20026;-66
2021/08/06 11:44:14;;;;;;;1.60;1.48;;;844.90;896.00;;;;;;4850321;29;20037;-67
2021/08/06 11:46:51;;;;;;;2.40;1.80;;;820.00;870.40;;;;;;4849941;29;20125;-66
2021/08/06 11:49:18;;;;;;;2.35;1.90;;;820.10;896.00;;;;;;4855572;29;20029;-66
2021/08/06 11:51:51;;;;;;;2.40;1.40;;;844.90;896.00;;;;;;4860138;29;20484;-67
2021/08/06 11:54:17;;;;;;;1.38;1.17;;;844.90;896.00;;;;;;4858719;29;20466;-66
2021/08/06 11:56:45;;;;;;;3.15;1.50;;;844.80;896.00;;;;;;4852073;29;20029;-66
2021/08/06 11:59:11;;;;;;;2.55;1.80;;;844.80;870.40;;;;;;4849466;29;20037;-66
2021/08/06 12:01:37;;;;;;;2.72;2.45;;;844.80;870.40;;;;;;4851991;29;20026;-65
2021/08/06 12:04:03;;;;;;;4.60;1.88;;;844.80;870.40;;;;;;4850410;29;20507;-66
2021/08/06 12:06:29;;;;;;;2.28;1.60;;;819.90;870.40;;;;;;4849616;29;20029;-66
2021/08/06 12:08:58;;;;;;;1.98;1.50;;;819.90;870.40;;;;;;4851246;29;20066;-66
2021/08/06 12:11:31;;;;;;;3.92;1.67;;;820.10;870.40;;;;;;4850560;29;20053;-65
2021/08/06 12:14:01;;;;;;;2.95;1.20;;;820.10;870.40;;;;;;4851923;29;20022;-66
2021/08/06 12:16:30;;;;;;;8.52;1.95;;;844.80;896.00;;;;;;4850755;29;20030;-66
2021/08/06 12:19:00;;;;;;;2.58;1.20;;;844.80;870.40;;;;;;4855871;29;20096;-67
2021/08/06 12:21:34;;;;;;;1.25;1.10;;;844.80;870.40;;;;;;4861357;29;20034;-66
2021/08/06 12:24:14;;;;;;;1.80;1.50;;;844.90;870.40;;;;;;4860912;29;20033;-67